Time;durP1;ratioP1;P1;durP2;ratioP2;P2;SDS_P1;SDS_P2;PMS_P1;PMS_P2;Temp;Humidity;BMP_temperature;BMP_pressure;BME280_temperature;BME280_humidity;BME280_pressure;Samples;Min_cycle;Max_cycle;Signal;HPM_P1;HPM_P2
2022/05/22 00:00:56;;;;;;;3.97;1.23;;;14.00;99.90;;;;;;5116682;28;20466;-40
2022/05/22 00:03:22;;;;;;;8.13;1.87;;;13.90;99.90;;;;;;5116439;28;21005;-46
2022/05/22 00:05:51;;;;;;;2.93;1.63;;;13.90;99.90;;;;;;5116030;28;20473;-48
2022/05/22 00:08:18;;;;;;;4.50;1.30;;;13.90;99.90;;;;;;5116193;28;20426;-50
2022/05/22 00:10:44;;;;;;;7.27;1.70;;;13.80;99.90;;;;;;5116335;28;20425;-49
2022/05/22 00:13:13;;;;;;;2.90;1.47;;;13.80;99.90;;;;;;5116231;28;20461;-43
2022/05/22 00:16:36;;;;;;;9.07;1.60;;;13.80;99.90;;;;;;5115950;28;20425;-49
2022/05/22 00:18:28;;;;;;;8.40;2.30;;;13.80;99.90;;;;;;5109909;28;20876;-48
2022/05/22 00:20:55;;;;;;;1.80;1.50;;;13.80;99.90;;;;;;5094285;28;20533;-38
2022/05/22 00:23:24;;;;;;;3.30;1.40;;;13.90;99.90;;;;;;5094080;28;20461;-47
2022/05/22 00:25:51;;;;;;;3.20;1.10;;;13.90;99.90;;;;;;5094675;28;20482;-51
2022/05/22 00:28:18;;;;;;;4.50;1.50;;;13.90;99.90;;;;;;5096181;28;20439;-50
2022/05/22 00:30:45;;;;;;;6.70;1.53;;;13.80;99.90;;;;;;5095393;28;20500;-44
2022/05/22 00:33:12;;;;;;;2.40;1.20;;;13.80;99.90;;;;;;5094959;28;20449;-47
2022/05/22 00:35:40;;;;;;;2.67;1.10;;;13.80;99.90;;;;;;5095240;28;20464;-44
2022/05/22 00:38:07;;;;;;;3.30;1.30;;;13.80;99.90;;;;;;5095014;28;20466;-48
2022/05/22 00:40:34;;;;;;;3.40;1.27;;;13.80;99.90;;;;;;5095074;28;20446;-43
2022/05/22 00:43:00;;;;;;;4.23;1.40;;;13.80;99.90;;;;;;5096146;28;20466;-44
2022/05/22 00:45:31;;;;;;;2.83;1.47;;;13.80;99.90;;;;;;5094997;28;20455;-41
2022/05/22 00:47:58;;;;;;;6.90;2.10;;;13.70;99.90;;;;;;5095708;28;20461;-49
2022/05/22 00:50:26;;;;;;;8.57;1.27;;;13.70;99.90;;;;;;5095440;28;21189;-48
2022/05/22 00:52:59;;;;;;;3.50;1.47;;;13.70;99.90;;;;;;5095780;28;20447;-46
2022/05/22 00:55:30;;;;;;;6.90;1.50;;;13.70;99.90;;;;;;5095596;28;20480;-46
2022/05/22 00:57:59;;;;;;;3.40;2.03;;;13.60;99.90;;;;;;5095472;28;20419;-47
2022/05/22 01:00:32;;;;;;;3.77;1.70;;;13.60;99.90;;;;;;5095744;28;20462;-44
2022/05/22 01:03:27;;;;;;;6.00;1.37;;;13.60;99.90;;;;;;5095362;28;20411;-48
2022/05/22 01:05:55;;;;;;;2.50;1.57;;;13.60;99.90;;;;;;5095341;28;20543;-45
2022/05/22 01:08:22;;;;;;;3.83;1.60;;;13.60;99.90;;;;;;5094280;28;20493;-46
2022/05/22 01:10:54;;;;;;;5.60;1.70;;;13.60;99.90;;;;;;5087023;28;20524;-44
2022/05/22 01:13:27;;;;;;;3.60;1.43;;;13.50;99.90;;;;;;5095425;28;20518;-41
2022/05/22 01:15:59;;;;;;;5.47;1.73;;;13.50;99.90;;;;;;5094755;28;20489;-46
2022/05/22 01:18:28;;;;;;;5.93;1.60;;;13.50;99.90;;;;;;5095448;28;20437;-48
2022/05/22 01:20:55;;;;;;;4.20;1.33;;;13.50;99.90;;;;;;5094617;28;20443;-50
2022/05/22 01:23:24;;;;;;;4.80;1.40;;;13.40;99.90;;;;;;5094212;28;20468;-46
2022/05/22 01:25:59;;;;;;;6.10;1.83;;;13.40;99.90;;;;;;5094734;28;20482;-48
2022/05/22 01:28:26;;;;;;;6.13;1.50;;;13.30;99.90;;;;;;5094751;28;20511;-44
2022/05/22 01:30:52;;;;;;;6.50;2.57;;;13.30;99.90;;;;;;5094421;28;20484;-42
2022/05/22 01:33:19;;;;;;;5.43;1.63;;;13.40;99.90;;;;;;5094660;28;20472;-45
2022/05/22 01:35:46;;;;;;;3.67;1.63;;;13.40;99.90;;;;;;5094845;28;20431;-41
2022/05/22 01:38:17;;;;;;;2.90;1.30;;;13.30;99.90;;;;;;5094705;28;20462;-44
2022/05/22 01:40:46;;;;;;;5.33;1.77;;;13.30;99.90;;;;;;5095133;28;20434;-46
2022/05/22 01:43:13;;;;;;;4.77;2.07;;;13.30;99.90;;;;;;5094567;28;20438;-45
2022/05/22 01:45:42;;;;;;;3.43;1.23;;;13.30;99.90;;;;;;5094264;28;20520;-50
2022/05/22 01:48:16;;;;;;;2.20;1.43;;;13.30;99.90;;;;;;5093786;28;20450;-41
2022/05/22 01:50:45;;;;;;;3.17;2.10;;;13.20;99.90;;;;;;5093700;28;20469;-45
2022/05/22 01:53:15;;;;;;;4.77;1.67;;;13.10;99.90;;;;;;5093647;28;20439;-45
2022/05/22 01:55:42;;;;;;;4.50;2.03;;;13.10;99.90;;;;;;5094112;28;20418;-43
2022/05/22 01:58:10;;;;;;;5.37;1.23;;;13.10;99.90;;;;;;5093811;28;20422;-46
2022/05/22 02:00:38;;;;;;;3.67;1.60;;;13.10;99.90;;;;;;5093813;28;20442;-49
2022/05/22 02:03:07;;;;;;;6.00;1.27;;;13.10;99.90;;;;;;5094226;28;20480;-46
2022/05/22 02:05:34;;;;;;;2.60;1.50;;;13.10;99.90;;;;;;5093985;28;20429;-50
2022/05/22 02:08:19;;;;;;;4.23;1.73;;;13.10;99.90;;;;;;5094033;28;20479;-47
2022/05/22 02:10:50;;;;;;;5.03;1.73;;;13.10;99.90;;;;;;5094618;28;20548;-48
2022/05/22 02:13:20;;;;;;;2.30;1.57;;;13.10;99.90;;;;;;5093883;28;20441;-50
2022/05/22 02:15:47;;;;;;;4.10;1.50;;;13.10;99.90;;;;;;5094164;28;20445;-34
2022/05/22 02:18:14;;;;;;;3.23;1.37;;;13.10;99.90;;;;;;5093965;28;20435;-43
2022/05/22 02:20:44;;;;;;;3.23;1.30;;;13.10;99.90;;;;;;5093780;28;20462;-42
2022/05/22 02:23:12;;;;;;;4.87;1.90;;;13.00;99.90;;;;;;5094163;28;20442;-56
2022/05/22 02:25:45;;;;;;;6.03;1.90;;;13.00;99.90;;;;;;5094679;28;20468;-48
2022/05/22 02:28:19;;;;;;;5.70;1.60;;;13.10;99.90;;;;;;5094694;28;20457;-50
2022/05/22 02:30:48;;;;;;;3.80;1.63;;;13.10;99.90;;;;;;5094697;28;20451;-47
2022/05/22 02:33:15;;;;;;;9.17;2.17;;;13.10;99.90;;;;;;5094882;28;20466;-42
2022/05/22 02:35:42;;;;;;;4.87;1.30;;;13.20;99.90;;;;;;5094227;28;20442;-40
2022/05/22 02:38:10;;;;;;;2.47;1.23;;;13.20;99.90;;;;;;5093718;28;20457;-37
2022/05/22 02:40:40;;;;;;;6.53;2.10;;;13.20;99.90;;;;;;5094226;28;20434;-45
2022/05/22 02:43:07;;;;;;;12.23;2.20;;;13.20;99.90;;;;;;5093591;28;20836;-45
2022/05/22 02:45:38;;;;;;;1.73;1.47;;;13.10;99.90;;;;;;5093602;28;20458;-47
2022/05/22 02:48:12;;;;;;;7.17;1.80;;;13.10;99.90;;;;;;5094244;28;20462;-38
2022/05/22 02:50:42;;;;;;;1.90;1.40;;;13.10;99.90;;;;;;5094034;28;20463;-47
2022/05/22 02:53:09;;;;;;;7.43;2.30;;;13.10;99.90;;;;;;5093890;28;20482;-44
2022/05/22 02:55:36;;;;;;;3.20;1.43;;;13.10;99.90;;;;;;5093661;28;20450;-42
2022/05/22 02:58:04;;;;;;;8.40;1.93;;;13.00;99.90;;;;;;5093610;28;20459;-45
2022/05/22 03:00:32;;;;;;;3.70;1.90;;;13.00;99.90;;;;;;5094094;28;20517;-42
2022/05/22 03:03:01;;;;;;;5.27;1.53;;;12.90;99.90;;;;;;5093657;28;20472;-53
2022/05/22 03:06:37;;;;;;;6.10;1.93;;;12.90;99.90;;;;;;5088306;28;20492;-48
2022/05/22 03:08:18;;;;;;;3.77;1.70;;;12.80;99.90;;;;;;5094778;28;20478;-48
2022/05/22 03:10:46;;;;;;;4.40;1.60;;;12.80;99.90;;;;;;5094439;28;20472;-54
2022/05/22 03:13:13;;;;;;;8.27;1.70;;;12.80;99.90;;;;;;5094919;28;20445;-41
2022/05/22 03:15:40;;;;;;;6.60;2.23;;;12.70;99.90;;;;;;5095123;28;20450;-51
2022/05/22 03:18:11;;;;;;;3.50;2.10;;;12.70;99.90;;;;;;5094589;28;20454;-49
2022/05/22 03:20:38;;;;;;;4.33;1.77;;;12.70;99.90;;;;;;5094906;28;20430;-52
2022/05/22 03:23:04;;;;;;;4.30;2.10;;;12.70;99.90;;;;;;5093967;28;20465;-51
2022/05/22 03:25:31;;;;;;;5.97;1.93;;;12.60;99.90;;;;;;5093724;28;20442;-51
2022/05/22 03:28:00;;;;;;;9.00;1.57;;;12.60;99.90;;;;;;5093677;28;20478;-50
2022/05/22 03:30:28;;;;;;;6.30;2.00;;;12.50;99.90;;;;;;5094388;28;20434;-42
2022/05/22 03:32:54;;;;;;;3.17;1.60;;;12.60;99.90;;;;;;5097394;28;20449;-40
2022/05/22 03:35:22;;;;;;;4.13;1.97;;;12.60;99.90;;;;;;5097807;28;20438;-44
2022/05/22 03:37:49;;;;;;;10.20;2.23;;;12.50;99.90;;;;;;5097962;28;20430;-44
2022/05/22 03:40:17;;;;;;;4.37;1.80;;;12.40;99.90;;;;;;5097222;28;20469;-46
2022/05/22 03:42:44;;;;;;;3.67;1.30;;;12.40;99.90;;;;;;5097285;28;20449;-45
2022/05/22 03:45:14;;;;;;;3.90;1.70;;;12.40;99.90;;;;;;5097069;28;20442;-43
2022/05/22 03:47:40;;;;;;;7.03;2.30;;;12.40;99.90;;;;;;5096789;28;20489;-43
2022/05/22 03:50:08;;;;;;;5.60;1.63;;;12.40;99.90;;;;;;5097339;28;20458;-48
2022/05/22 03:52:42;;;;;;;2.23;1.77;;;12.40;99.90;;;;;;5097467;28;20467;-50
2022/05/22 03:55:11;;;;;;;8.83;1.63;;;12.40;99.90;;;;;;5097177;28;20434;-45
2022/05/22 03:57:38;;;;;;;2.70;1.43;;;12.50;99.90;;;;;;5096583;28;20497;-50
2022/05/22 04:00:07;;;;;;;8.53;2.07;;;12.50;99.90;;;;;;5091527;28;20446;-53
2022/05/22 04:02:37;;;;;;;9.10;2.07;;;12.50;99.90;;;;;;5093438;28;20470;-46
2022/05/22 04:05:06;;;;;;;8.37;2.30;;;12.60;99.90;;;;;;5096088;28;20466;-47
2022/05/22 04:07:37;;;;;;;4.27;1.93;;;12.70;99.90;;;;;;5096069;28;20496;-47
2022/05/22 04:10:06;;;;;;;4.47;2.00;;;12.70;99.90;;;;;;5096541;28;20485;-46
2022/05/22 04:12:33;;;;;;;8.43;2.33;;;12.70;99.90;;;;;;5096442;28;20430;-45
2022/05/22 04:15:00;;;;;;;10.60;2.60;;;12.60;99.90;;;;;;5096097;28;20450;-37
2022/05/22 04:17:27;;;;;;;10.23;2.70;;;12.70;99.90;;;;;;5095543;28;20438;-47
2022/05/22 04:19:53;;;;;;;7.40;2.00;;;12.70;99.90;;;;;;5095827;28;20504;-45
2022/05/22 04:22:22;;;;;;;3.43;1.90;;;12.70;99.90;;;;;;5095762;28;20442;-46
2022/05/22 04:27:42;;;;;;;5.80;2.07;;;12.70;99.90;;;;;;5096388;28;20476;-39
2022/05/22 04:30:17;;;;;;;7.90;2.20;;;12.70;99.90;;;;;;5096247;28;20613;-47
2022/05/22 04:32:44;;;;;;;4.10;2.70;;;12.80;99.90;;;;;;5096239;28;20469;-51
2022/05/22 04:35:12;;;;;;;5.60;2.83;;;12.80;99.90;;;;;;5095309;28;20462;-48
2022/05/22 04:37:43;;;;;;;5.43;2.40;;;12.80;99.90;;;;;;5096111;28;20464;-49
2022/05/22 04:40:11;;;;;;;4.70;2.10;;;13.00;99.90;;;;;;5087444;28;20455;-37
2022/05/22 04:42:41;;;;;;;9.17;2.13;;;13.00;99.90;;;;;;5096370;28;20419;-45
2022/05/22 04:45:09;;;;;;;8.43;3.17;;;13.00;99.90;;;;;;5095826;28;20431;-49
2022/05/22 04:47:37;;;;;;;7.50;2.10;;;13.00;99.90;;;;;;5094927;28;20470;-46
2022/05/22 04:50:05;;;;;;;7.97;2.27;;;12.90;99.90;;;;;;5095552;28;20457;-47
2022/05/22 04:52:33;;;;;;;7.90;2.20;;;13.00;99.90;;;;;;5089126;28;20474;-46
2022/05/22 04:54:59;;;;;;;5.70;2.50;;;13.00;99.90;;;;;;5087440;28;20474;-43
2022/05/22 04:57:26;;;;;;;4.33;2.20;;;12.90;99.90;;;;;;5095181;28;20441;-48
2022/05/22 04:59:54;;;;;;;5.03;1.97;;;12.90;99.90;;;;;;5096334;28;20543;-46
2022/05/22 05:02:23;;;;;;;14.17;3.50;;;13.10;99.90;;;;;;5094406;28;20465;-55
2022/05/22 05:04:53;;;;;;;6.33;2.47;;;13.20;99.90;;;;;;5092969;28;20473;-48
2022/05/22 05:07:20;;;;;;;11.20;2.87;;;13.20;99.90;;;;;;5096419;28;20466;-51
2022/05/22 05:09:48;;;;;;;11.83;2.63;;;13.30;99.90;;;;;;5096728;28;20482;-45
2022/05/22 05:12:15;;;;;;;3.93;1.93;;;13.30;99.90;;;;;;5095728;28;20442;-53
2022/05/22 05:14:44;;;;;;;5.70;1.70;;;13.40;99.90;;;;;;5089317;28;20459;-46
2022/05/22 05:17:18;;;;;;;13.70;2.97;;;13.40;99.90;;;;;;5096263;28;20451;-51
2022/05/22 05:19:46;;;;;;;9.67;2.90;;;13.50;99.90;;;;;;5096674;28;20418;-46
2022/05/22 05:22:13;;;;;;;5.00;2.30;;;13.60;99.90;;;;;;5096263;28;20461;-45
2022/05/22 05:24:41;;;;;;;3.97;2.10;;;13.70;99.90;;;;;;5095908;28;20439;-46
2022/05/22 05:27:07;;;;;;;5.70;2.57;;;13.80;99.90;;;;;;5096282;28;20474;-51
2022/05/22 05:29:34;;;;;;;3.87;2.23;;;13.90;99.90;;;;;;5095633;28;20470;-56
2022/05/22 05:32:01;;;;;;;4.27;2.30;;;13.90;99.90;;;;;;5089179;28;20910;-48
2022/05/22 05:34:31;;;;;;;13.87;4.10;;;14.00;99.90;;;;;;5095238;28;20441;-53
2022/05/22 05:36:58;;;;;;;5.43;2.30;;;14.00;99.90;;;;;;5095338;28;20492;-53
2022/05/22 05:39:27;;;;;;;5.30;2.67;;;14.00;99.90;;;;;;5094689;28;20473;-45
2022/05/22 05:41:55;;;;;;;11.43;2.40;;;13.90;99.90;;;;;;5094859;28;20450;-40
2022/05/22 05:44:23;;;;;;;3.83;2.00;;;13.80;99.90;;;;;;5094624;28;20415;-36
2022/05/22 05:46:49;;;;;;;9.63;2.83;;;13.90;99.90;;;;;;5095373;28;20445;-36
2022/05/22 05:49:16;;;;;;;7.93;2.77;;;14.00;99.90;;;;;;5095081;28;20477;-44
2022/05/22 05:51:44;;;;;;;5.87;2.53;;;14.10;99.90;;;;;;5094556;28;20454;-46
2022/05/22 05:54:11;;;;;;;4.00;2.33;;;14.20;99.90;;;;;;5093262;28;20470;-48
2022/05/22 05:56:39;;;;;;;5.40;2.37;;;14.20;99.90;;;;;;5094216;28;20454;-51
2022/05/22 05:59:06;;;;;;;6.13;2.47;;;14.20;99.90;;;;;;5094721;28;20449;-51
2022/05/22 06:01:33;;;;;;;8.90;3.27;;;14.30;99.90;;;;;;5094404;28;20737;-45
2022/05/22 06:04:00;;;;;;;5.67;2.00;;;14.40;99.90;;;;;;5090719;28;20454;-46
2022/05/22 06:06:28;;;;;;;5.33;2.50;;;14.50;99.90;;;;;;5094191;28;20490;-41
2022/05/22 06:08:56;;;;;;;8.43;3.20;;;14.60;99.90;;;;;;5099108;28;20510;-47
2022/05/22 06:11:26;;;;;;;8.50;3.80;;;14.60;99.90;;;;;;5105076;28;20459;-41
2022/05/22 06:13:56;;;;;;;5.43;3.93;;;14.60;99.90;;;;;;5105240;28;20427;-43
2022/05/22 06:16:23;;;;;;;7.33;2.53;;;14.60;99.90;;;;;;5104511;28;20438;-46
2022/05/22 06:18:50;;;;;;;10.77;2.80;;;14.60;99.90;;;;;;5114707;28;20491;-44
2022/05/22 06:21:19;;;;;;;8.20;3.30;;;14.70;99.90;;;;;;5114174;28;20766;-49
2022/05/22 06:23:46;;;;;;;11.47;2.50;;;14.80;99.90;;;;;;5114415;28;20514;-55
2022/05/22 06:26:17;;;;;;;6.50;2.20;;;14.80;99.90;;;;;;5113956;28;20455;-45
2022/05/22 06:28:44;;;;;;;4.40;2.30;;;14.90;99.90;;;;;;5113171;28;20453;-40
2022/05/22 06:31:12;;;;;;;6.03;2.93;;;15.10;99.90;;;;;;5114291;28;20453;-43
2022/05/22 06:33:39;;;;;;;7.33;2.20;;;15.30;99.90;;;;;;5107509;28;20441;-49
2022/05/22 06:36:12;;;;;;;4.83;2.00;;;15.40;99.90;;;;;;5102516;28;20470;-48
2022/05/22 06:41:32;;;;;;;7.57;2.43;;;15.60;99.90;;;;;;5040532;28;20499;-47
2022/05/22 06:44:01;;;;;;;7.17;1.50;;;15.50;99.90;;;;;;5094353;28;20423;-46
2022/05/22 06:46:33;;;;;;;6.60;2.30;;;15.50;99.90;;;;;;5111064;28;20477;-37
2022/05/22 06:49:01;;;;;;;9.27;2.73;;;15.20;99.90;;;;;;5093804;28;20486;-45
2022/05/22 06:51:28;;;;;;;4.20;1.87;;;15.30;99.90;;;;;;5094466;28;20442;-42
2022/05/22 06:53:56;;;;;;;5.37;2.33;;;15.30;99.90;;;;;;5094178;28;20462;-50
2022/05/22 06:56:23;;;;;;;5.43;2.67;;;15.30;99.90;;;;;;5108070;28;20433;-41
2022/05/22 06:58:53;;;;;;;8.20;1.97;;;15.30;99.90;;;;;;5103643;28;20445;-47
2022/05/22 07:01:22;;;;;;;5.77;2.33;;;15.40;99.90;;;;;;5095357;28;20472;-45
2022/05/22 07:03:49;;;;;;;9.37;2.43;;;15.50;99.90;;;;;;5094302;28;20419;-44
2022/05/22 07:06:16;;;;;;;3.10;2.00;;;15.70;99.90;;;;;;5095826;28;20482;-47
2022/05/22 07:08:42;;;;;;;7.17;2.13;;;15.80;99.90;;;;;;5107015;28;20567;-55
2022/05/22 07:13:55;;;;;;;8.20;2.33;;;15.90;99.90;;;;;;5109387;28;20437;-51
2022/05/22 07:16:21;;;;;;;2.37;1.53;;;15.90;99.90;;;;;;5098048;28;20476;-51
2022/05/22 07:18:48;;;;;;;3.57;1.90;;;16.00;99.90;;;;;;5098070;28;20439;-52
2022/05/22 07:21:15;;;;;;;5.27;1.50;;;16.00;99.90;;;;;;5097878;28;20533;-48
2022/05/22 07:23:41;;;;;;;3.70;1.90;;;16.10;99.90;;;;;;5098102;28;20492;-49
2022/05/22 07:26:10;;;;;;;3.63;1.77;;;16.10;99.90;;;;;;5113890;28;20456;-47
2022/05/22 07:28:36;;;;;;;8.83;2.23;;;16.10;99.90;;;;;;5116775;28;20488;-45
2022/05/22 07:31:04;;;;;;;1.97;1.50;;;16.00;99.90;;;;;;5112108;28;20449;-45
2022/05/22 07:33:33;;;;;;;5.57;2.03;;;16.00;99.90;;;;;;5096622;28;20492;-47
2022/05/22 07:36:00;;;;;;;3.60;1.70;;;15.90;99.90;;;;;;5103188;28;20458;-50
2022/05/22 07:38:26;;;;;;;3.20;1.47;;;15.90;99.90;;;;;;5115939;28;20512;-50
2022/05/22 07:40:55;;;;;;;3.00;1.33;;;16.00;99.90;;;;;;5115533;28;20468;-46
2022/05/22 07:43:22;;;;;;;5.13;1.83;;;16.10;99.90;;;;;;5116109;28;20433;-45
2022/05/22 07:45:49;;;;;;;5.10;1.60;;;16.10;99.90;;;;;;5101001;28;20458;-43
2022/05/22 07:48:17;;;;;;;6.80;1.87;;;16.30;99.90;;;;;;5117626;28;20458;-48
2022/05/22 07:50:44;;;;;;;2.30;1.37;;;16.40;99.90;;;;;;5116072;28;20449;-49
2022/05/22 07:53:11;;;;;;;12.80;6.97;;;16.50;99.90;;;;;;5117378;28;20450;-50
2022/05/22 07:55:43;;;;;;;4.60;2.40;;;16.60;99.90;;;;;;5142929;23;20507;-41
2022/05/22 07:58:10;;;;;;;3.37;1.30;;;16.90;99.90;;;;;;5075290;28;20455;-43
2022/05/22 08:00:41;;;;;;;4.90;1.43;;;17.10;99.90;;;;;;5077912;28;20439;-45
2022/05/22 08:03:09;;;;;;;2.83;1.03;;;17.30;99.90;;;;;;5077477;28;20455;-45
2022/05/22 08:05:37;;;;;;;1.33;1.10;;;17.30;99.90;;;;;;5077824;28;20474;-48
2022/05/22 08:08:04;;;;;;;4.13;1.70;;;17.30;99.90;;;;;;5077778;28;20490;-51
2022/05/22 08:10:31;;;;;;;4.57;1.53;;;17.20;99.90;;;;;;5068459;28;20471;-36
2022/05/22 08:12:58;;;;;;;2.43;1.20;;;17.10;99.90;;;;;;5077571;28;20455;-44
2022/05/22 08:15:30;;;;;;;7.60;1.50;;;17.20;99.90;;;;;;5077642;28;20478;-42
2022/05/22 08:17:56;;;;;;;1.90;1.30;;;17.30;99.90;;;;;;5077436;28;20416;-39
2022/05/22 08:20:23;;;;;;;4.70;1.40;;;17.30;99.90;;;;;;5077787;28;20469;-40
2022/05/22 08:22:54;;;;;;;4.00;1.43;;;17.30;99.90;;;;;;5077587;28;20660;-51
2022/05/22 08:25:22;;;;;;;3.30;1.60;;;17.20;99.90;;;;;;5077660;28;20471;-44
2022/05/22 08:27:49;;;;;;;3.87;1.80;;;17.10;99.90;;;;;;5077847;28;20416;-50
2022/05/22 08:30:18;;;;;;;5.13;1.53;;;17.10;99.90;;;;;;5077607;28;20554;-48
2022/05/22 08:32:46;;;;;;;3.10;1.30;;;17.10;99.90;;;;;;5077640;28;20466;-46
2022/05/22 08:35:14;;;;;;;2.37;2.17;;;17.50;99.90;;;;;;5076552;28;20440;-45
2022/05/22 08:37:41;;;;;;;2.50;1.20;;;18.70;99.90;;;;;;5076527;28;20514;-46
2022/05/22 08:40:12;;;;;;;5.97;1.40;;;19.30;99.90;;;;;;5076848;28;20471;-44
2022/05/22 08:42:43;;;;;;;2.80;1.83;;;19.30;99.90;;;;;;5076569;28;20467;-49
2022/05/22 08:45:16;;;;;;;1.67;1.00;;;19.10;99.90;;;;;;5077393;28;20431;-46
2022/05/22 08:47:50;;;;;;;1.67;1.27;;;18.70;99.90;;;;;;5076934;28;20485;-39
2022/05/22 08:50:19;;;;;;;1.70;1.10;;;18.30;99.90;;;;;;5077319;28;20441;-43
2022/05/22 08:52:52;;;;;;;3.50;1.50;;;17.90;99.90;;;;;;5077346;28;20490;-48
2022/05/22 08:55:24;;;;;;;3.50;1.60;;;17.70;99.90;;;;;;5076941;28;20420;-43
2022/05/22 09:00:41;;;;;;;2.97;1.37;;;17.30;99.90;;;;;;5073546;28;20433;-46
2022/05/22 09:03:15;;;;;;;4.80;1.60;;;17.00;99.90;;;;;;5076749;28;20451;-44
2022/05/22 09:05:42;;;;;;;3.97;1.37;;;17.00;99.90;;;;;;5076447;28;20471;-48
2022/05/22 09:08:17;;;;;;;3.47;1.60;;;16.90;99.90;;;;;;5076251;28;20514;-44
2022/05/22 09:11:00;;;;;;;1.70;1.23;;;16.80;99.90;;;;;;5075606;28;20459;-52
2022/05/22 09:13:32;;;;;;;3.73;1.57;;;17.00;99.90;;;;;;5076394;28;20432;-47
2022/05/22 09:16:06;;;;;;;5.30;1.70;;;17.40;99.90;;;;;;5076401;28;20451;-41
2022/05/22 09:18:35;;;;;;;3.67;1.47;;;17.50;99.90;;;;;;5076624;28;20424;-44
2022/05/22 09:21:17;;;;;;;2.70;1.40;;;17.60;99.90;;;;;;5076242;28;20482;-39
2022/05/22 09:24:01;;;;;;;9.03;1.50;;;17.70;99.90;;;;;;5076119;28;20455;-44
2022/05/22 09:26:45;;;;;;;3.53;1.33;;;18.00;99.90;;;;;;5075704;28;20470;-47
2022/05/22 09:29:45;;;;;;;3.00;1.30;;;18.10;99.90;;;;;;5075683;28;20456;-49
2022/05/22 09:32:27;;;;;;;6.90;1.93;;;18.40;99.90;;;;;;5076016;28;20481;-52
2022/05/22 09:35:05;;;;;;;4.63;1.70;;;18.70;99.90;;;;;;5076339;28;20431;-41
2022/05/22 09:37:41;;;;;;;2.17;1.70;;;19.20;99.90;;;;;;5076047;28;20474;-45
2022/05/22 09:40:20;;;;;;;3.87;1.70;;;19.40;99.90;;;;;;5076002;28;20423;-45
2022/05/22 09:43:08;;;;;;;3.83;1.30;;;19.30;99.90;;;;;;5075733;28;20458;-45
2022/05/22 09:45:49;;;;;;;5.20;1.57;;;19.10;99.90;;;;;;5075521;28;20440;-48
2022/05/22 09:48:43;;;;;;;2.93;1.40;;;19.30;99.90;;;;;;5075749;28;20442;-48
2022/05/22 09:51:17;;;;;;;4.77;1.33;;;19.40;99.90;;;;;;5075786;28;20419;-42
2022/05/22 09:53:57;;;;;;;1.60;1.37;;;19.30;99.90;;;;;;5075778;28;20499;-48
2022/05/22 09:56:32;;;;;;;3.43;1.47;;;18.90;99.90;;;;;;5075234;28;20465;-43
2022/05/22 09:59:23;;;;;;;5.20;2.00;;;19.10;99.90;;;;;;5075978;28;20439;-42
2022/05/22 10:01:55;;;;;;;1.90;1.30;;;19.90;99.90;;;;;;5075958;28;20455;-48
2022/05/22 10:04:32;;;;;;;2.70;1.70;;;19.90;99.90;;;;;;5075790;28;20438;-46
2022/05/22 10:07:07;;;;;;;1.73;1.20;;;19.70;99.90;;;;;;5075796;28;20470;-44
2022/05/22 10:09:46;;;;;;;7.33;1.93;;;19.80;99.90;;;;;;5064329;28;20459;-46
2022/05/22 10:12:27;;;;;;;5.50;1.27;;;20.30;99.90;;;;;;5075360;28;20467;-46
2022/05/22 10:15:05;;;;;;;5.83;1.23;;;21.00;99.90;;;;;;5075312;28;20504;-47
2022/05/22 10:17:48;;;;;;;2.50;1.30;;;21.10;99.60;;;;;;5075239;28;20471;-40
2022/05/22 10:20:24;;;;;;;2.23;1.57;;;20.80;99.00;;;;;;5075593;28;20416;-45
2022/05/22 10:23:02;;;;;;;4.33;1.90;;;20.60;99.90;;;;;;5065834;28;20466;-49
2022/05/22 10:25:40;;;;;;;4.10;1.43;;;20.30;99.90;;;;;;5073931;28;20416;-42
2022/05/22 10:28:10;;;;;;;4.20;2.30;;;20.40;99.90;;;;;;5075016;28;20485;-45
2022/05/22 10:30:44;;;;;;;2.73;1.27;;;20.70;99.90;;;;;;5075563;28;20433;-49
2022/05/22 10:33:19;;;;;;;4.40;1.57;;;20.70;99.80;;;;;;5074604;28;20428;-49
2022/05/22 10:35:48;;;;;;;6.53;1.50;;;21.10;99.90;;;;;;5075237;28;20419;-44
2022/05/22 10:38:20;;;;;;;2.90;1.40;;;21.80;99.10;;;;;;5075459;28;20485;-48
2022/05/22 10:43:45;;;;;;;3.73;1.37;;;21.90;93.80;;;;;;5034541;28;20450;-48
2022/05/22 10:46:13;;;;;;;2.77;1.17;;;21.70;94.40;;;;;;5078668;28;20446;-48
2022/05/22 10:48:48;;;;;;;3.00;1.40;;;21.50;95.70;;;;;;5079250;28;20513;-50
2022/05/22 10:51:24;;;;;;;4.90;1.27;;;21.70;95.40;;;;;;5079169;28;20470;-46
2022/05/22 10:53:54;;;;;;;2.70;1.20;;;21.60;94.80;;;;;;5078820;28;20435;-48
2022/05/22 10:56:25;;;;;;;1.67;1.20;;;21.70;93.90;;;;;;5065965;28;20455;-49
2022/05/22 10:58:54;;;;;;;7.00;2.10;;;21.80;93.20;;;;;;5081105;28;20496;-48
2022/05/22 11:01:24;;;;;;;2.30;1.27;;;21.30;92.90;;;;;;5075680;28;20493;-47
2022/05/22 11:04:02;;;;;;;2.10;1.23;;;20.80;93.70;;;;;;5070152;28;20451;-48
2022/05/22 11:06:29;;;;;;;1.73;1.37;;;20.40;94.90;;;;;;5071508;28;20489;-43
2022/05/22 11:08:57;;;;;;;4.27;1.47;;;20.10;96.60;;;;;;5073910;28;20479;-43
2022/05/22 11:11:26;;;;;;;5.63;1.97;;;19.90;98.10;;;;;;5075059;28;20475;-49
2022/05/22 11:13:53;;;;;;;1.53;1.30;;;19.70;99.70;;;;;;5074486;28;20923;-46
2022/05/22 11:16:26;;;;;;;3.53;2.07;;;19.70;99.90;;;;;;5074155;28;20453;-49
2022/05/22 11:19:04;;;;;;;1.83;1.40;;;19.80;99.90;;;;;;5069186;28;20478;-46
2022/05/22 11:21:37;;;;;;;4.50;1.53;;;20.20;99.90;;;;;;5072259;28;20455;-46
2022/05/22 11:24:14;;;;;;;7.03;2.23;;;20.40;99.80;;;;;;5070285;28;20428;-42
2022/05/22 11:26:53;;;;;;;2.53;1.77;;;20.50;98.50;;;;;;5064847;28;20439;-42
2022/05/22 11:29:45;;;;;;;2.03;1.60;;;20.60;98.30;;;;;;5076457;28;20471;-47
2022/05/22 11:32:28;;;;;;;2.57;1.80;;;20.60;98.00;;;;;;5071240;28;20416;-49
2022/05/22 11:35:07;;;;;;;5.13;1.80;;;20.40;98.00;;;;;;5074616;28;20435;-41
2022/05/22 11:37:45;;;;;;;1.50;1.20;;;20.30;97.90;;;;;;5071413;28;20427;-49
2022/05/22 11:40:26;;;;;;;2.00;1.30;;;20.40;98.40;;;;;;5076982;28;20470;-45
2022/05/22 11:43:01;;;;;;;2.80;1.80;;;20.60;98.60;;;;;;5075797;28;20431;-47
2022/05/22 11:45:40;;;;;;;2.80;1.70;;;20.90;98.70;;;;;;5067909;28;20500;-43
2022/05/22 11:48:26;;;;;;;2.90;1.37;;;21.00;97.10;;;;;;5053051;28;20458;-49
2022/05/22 11:50:59;;;;;;;2.30;1.40;;;20.90;97.20;;;;;;5065071;28;20467;-41
2022/05/22 11:53:52;;;;;;;2.67;1.87;;;20.70;96.80;;;;;;5070184;28;20827;-51
2022/05/22 11:56:43;;;;;;;1.87;1.37;;;20.50;97.50;;;;;;5074752;28;20454;-50
2022/05/22 11:59:23;;;;;;;2.40;2.07;;;20.40;98.20;;;;;;5072651;28;20465;-43
2022/05/22 12:01:59;;;;;;;2.47;1.30;;;20.20;97.80;;;;;;5061916;28;20471;-49
2022/05/22 12:05:11;;;;;;;3.53;1.43;;;20.10;98.30;;;;;;5067099;28;20430;-48
2022/05/22 12:08:05;;;;;;;1.93;1.33;;;20.00;99.00;;;;;;5066474;28;20447;-46
2022/05/22 12:10:34;;;;;;;2.00;1.63;;;20.00;98.50;;;;;;5060527;28;20498;-46
2022/05/22 12:13:05;;;;;;;2.37;1.37;;;20.00;98.60;;;;;;5067624;28;20455;-47
2022/05/22 12:15:39;;;;;;;3.03;1.27;;;20.10;98.30;;;;;;5067717;28;20522;-48
2022/05/22 12:18:35;;;;;;;3.20;1.40;;;20.20;96.60;;;;;;5074262;28;20412;-51
2022/05/22 12:21:10;;;;;;;2.80;1.77;;;20.30;96.20;;;;;;5077303;28;20427;-45
2022/05/22 12:23:50;;;;;;;4.60;1.70;;;20.40;95.90;;;;;;5077385;28;20427;-51
2022/05/22 12:26:18;;;;;;;1.53;1.30;;;20.50;94.60;;;;;;5076727;28;20437;-45
2022/05/22 12:28:50;;;;;;;1.83;1.20;;;20.50;95.30;;;;;;5067881;28;20450;-42
2022/05/22 12:31:21;;;;;;;5.00;1.73;;;20.40;94.50;;;;;;5077755;28;20447;-42
2022/05/22 12:33:48;;;;;;;3.57;1.30;;;20.40;92.60;;;;;;5081765;28;20482;-41
2022/05/22 12:36:18;;;;;;;2.80;1.60;;;20.50;92.40;;;;;;5075590;28;20492;-44
2022/05/22 12:38:54;;;;;;;2.23;1.30;;;20.60;92.20;;;;;;5075886;28;20983;-45
2022/05/22 12:41:38;;;;;;;1.80;1.40;;;20.60;91.70;;;;;;5075733;28;20439;-47
2022/05/22 12:44:06;;;;;;;3.13;1.40;;;20.50;91.50;;;;;;5074817;28;20458;-47
2022/05/22 12:46:34;;;;;;;4.10;1.13;;;20.40;92.80;;;;;;5077040;28;20435;-45
2022/05/22 12:49:19;;;;;;;1.97;1.57;;;20.60;91.90;;;;;;5090258;28;20419;-44
2022/05/22 12:52:01;;;;;;;3.13;2.03;;;20.80;91.60;;;;;;5076786;28;20495;-45
2022/05/22 12:54:31;;;;;;;5.20;2.83;;;20.70;91.30;;;;;;5074509;28;20515;-41
2022/05/22 12:57:16;;;;;;;3.83;1.93;;;20.70;95.30;;;;;;5073268;28;20467;-44
2022/05/22 12:59:55;;;;;;;3.63;2.33;;;20.80;92.70;;;;;;5071445;28;20450;-47
2022/05/22 13:02:32;;;;;;;2.70;1.93;;;20.70;92.70;;;;;;5074048;28;20477;-45
2022/05/22 13:05:01;;;;;;;2.07;1.13;;;20.70;93.80;;;;;;5073670;28;20446;-47
2022/05/22 13:07:33;;;;;;;2.13;1.30;;;20.90;92.00;;;;;;5077671;28;20462;-44
2022/05/22 13:10:20;;;;;;;2.67;1.20;;;21.00;91.90;;;;;;5079041;28;20454;-42
2022/05/22 13:12:53;;;;;;;5.13;1.30;;;21.00;91.30;;;;;;5086008;28;20461;-41
2022/05/22 13:15:25;;;;;;;3.07;1.50;;;20.90;90.50;;;;;;5091005;28;20411;-46
2022/05/22 13:18:07;;;;;;;1.90;1.63;;;21.00;91.60;;;;;;5079768;28;20442;-47
2022/05/22 13:20:48;;;;;;;1.43;1.33;;;21.10;93.00;;;;;;5086562;28;20446;-52